sensor_id;sensor_type;location;lat;lon;timestamp;pressure;altitude;pressure_sealevel;temperature;humidity
550;BME280;20066;48.764;9.176;2023-04-29T00:01:16;97876.13;;;16.05;74.45
550;BME280;20066;48.764;9.176;2023-04-29T00:03:44;97860.97;;;15.91;74.57
550;BME280;20066;48.764;9.176;2023-04-29T00:06:13;97862.97;;;16.03;75.03
550;BME280;20066;48.764;9.176;2023-04-29T00:08:41;97866.22;;;15.98;74.08
550;BME280;20066;48.764;9.176;2023-04-29T00:11:09;97869.81;;;16.24;73.53
550;BME280;20066;48.764;9.176;2023-04-29T00:13:37;97868.81;;;16.18;73.72
550;BME280;20066;48.764;9.176;2023-04-29T00:16:07;97869.94;;;16.04;73.71
550;BME280;20066;48.764;9.176;2023-04-29T00:18:37;97868.22;;;16.10;73.40
550;BME280;20066;48.764;9.176;2023-04-29T00:21:04;97860.88;;;15.78;74.60
550;BME280;20066;48.764;9.176;2023-04-29T00:23:32;97866.53;;;16.16;73.37
550;BME280;20066;48.764;9.176;2023-04-29T00:26:01;97853.75;;;15.85;74.69
550;BME280;20066;48.764;9.176;2023-04-29T00:28:29;97862.72;;;16.14;73.40
550;BME280;20066;48.764;9.176;2023-04-29T00:30:57;97858.63;;;16.22;73.33
550;BME280;20066;48.764;9.176;2023-04-29T00:33:25;97858.59;;;15.77;76.11
550;BME280;20066;48.764;9.176;2023-04-29T00:35:54;97862.44;;;16.08;74.04
550;BME280;20066;48.764;9.176;2023-04-29T00:38:22;97862.06;;;15.94;74.03
550;BME280;20066;48.764;9.176;2023-04-29T00:40:50;97857.00;;;16.25;72.61
550;BME280;20066;48.764;9.176;2023-04-29T00:43:19;97855.06;;;16.25;72.08
550;BME280;20066;48.764;9.176;2023-04-29T00:45:47;97862.44;;;16.53;72.67
550;BME280;20066;48.764;9.176;2023-04-29T00:48:16;97856.81;;;16.32;72.60
550;BME280;20066;48.764;9.176;2023-04-29T00:50:44;97871.75;;;16.24;72.91
550;BME280;20066;48.764;9.176;2023-04-29T00:53:13;97868.31;;;16.07;72.55
550;BME280;20066;48.764;9.176;2023-04-29T00:55:43;97873.25;;;16.12;72.81
550;BME280;20066;48.764;9.176;2023-04-29T00:58:11;97879.78;;;16.14;73.67
550;BME280;20066;48.764;9.176;2023-04-29T01:00:40;97871.88;;;16.20;72.07
550;BME280;20066;48.764;9.176;2023-04-29T01:03:09;97879.78;;;16.56;70.78
550;BME280;20066;48.764;9.176;2023-04-29T01:05:37;97876.13;;;16.63;70.43
550;BME280;20066;48.764;9.176;2023-04-29T01:08:15;97879.25;;;16.03;72.72
550;BME280;20066;48.764;9.176;2023-04-29T01:10:54;97871.50;;;15.57;73.49
550;BME280;20066;48.764;9.176;2023-04-29T01:13:28;97872.97;;;16.06;73.98
550;BME280;20066;48.764;9.176;2023-04-29T01:16:01;97873.91;;;16.45;71.52
550;BME280;20066;48.764;9.176;2023-04-29T01:18:32;97875.00;;;16.47;71.34
550;BME280;20066;48.764;9.176;2023-04-29T01:21:01;97885.53;;;16.45;70.46
550;BME280;20066;48.764;9.176;2023-04-29T01:23:30;97884.22;;;15.76;73.69
550;BME280;20066;48.764;9.176;2023-04-29T01:25:58;97884.06;;;16.28;71.67
550;BME280;20066;48.764;9.176;2023-04-29T01:28:36;97878.16;;;15.85;72.98
550;BME280;20066;48.764;9.176;2023-04-29T01:31:10;97879.97;;;15.59;75.63
550;BME280;20066;48.764;9.176;2023-04-29T01:33:47;97879.81;;;15.82;73.44
550;BME280;20066;48.764;9.176;2023-04-29T01:36:24;97883.31;;;16.28;71.46
550;BME280;20066;48.764;9.176;2023-04-29T01:39:01;97883.50;;;16.21;71.23
550;BME280;20066;48.764;9.176;2023-04-29T01:41:34;97884.44;;;16.14;70.78
550;BME280;20066;48.764;9.176;2023-04-29T01:44:07;97884.69;;;15.87;72.06
550;BME280;20066;48.764;9.176;2023-04-29T01:46:35;97883.28;;;15.66;72.93
550;BME280;20066;48.764;9.176;2023-04-29T01:49:06;97877.09;;;15.82;72.21
550;BME280;20066;48.764;9.176;2023-04-29T01:51:33;97877.72;;;16.02;71.05
550;BME280;20066;48.764;9.176;2023-04-29T01:54:04;97874.53;;;15.91;71.17
550;BME280;20066;48.764;9.176;2023-04-29T01:56:31;97877.50;;;15.97;70.75
550;BME280;20066;48.764;9.176;2023-04-29T01:58:59;97874.44;;;15.95;71.43
550;BME280;20066;48.764;9.176;2023-04-29T02:01:27;97874.56;;;15.75;71.80
550;BME280;20066;48.764;9.176;2023-04-29T02:03:55;97878.22;;;15.68;72.36
550;BME280;20066;48.764;9.176;2023-04-29T02:06:23;97881.16;;;15.90;70.71
550;BME280;20066;48.764;9.176;2023-04-29T02:08:51;97871.75;;;15.78;70.84
550;BME280;20066;48.764;9.176;2023-04-29T02:11:20;97868.97;;;15.66;71.42
550;BME280;20066;48.764;9.176;2023-04-29T02:13:47;97865.97;;;15.12;71.58
550;BME280;20066;48.764;9.176;2023-04-29T02:16:16;97873.78;;;15.26;72.15
550;BME280;20066;48.764;9.176;2023-04-29T02:18:44;97871.31;;;15.31;71.98
550;BME280;20066;48.764;9.176;2023-04-29T02:21:12;97880.41;;;15.41;73.01
550;BME280;20066;48.764;9.176;2023-04-29T02:23:40;97873.88;;;15.22;72.73
550;BME280;20066;48.764;9.176;2023-04-29T02:26:08;97879.03;;;15.49;72.13
550;BME280;20066;48.764;9.176;2023-04-29T02:28:37;97877.25;;;15.26;73.02
550;BME280;20066;48.764;9.176;2023-04-29T02:31:05;97886.06;;;15.30;73.80
550;BME280;20066;48.764;9.176;2023-04-29T02:33:33;97881.16;;;15.41;73.04
550;BME280;20066;48.764;9.176;2023-04-29T02:36:01;97875.97;;;15.31;72.69
550;BME280;20066;48.764;9.176;2023-04-29T02:38:28;97878.22;;;15.52;71.98
550;BME280;20066;48.764;9.176;2023-04-29T02:40:56;97881.50;;;15.60;71.37
550;BME280;20066;48.764;9.176;2023-04-29T02:43:24;97884.72;;;15.71;70.34
550;BME280;20066;48.764;9.176;2023-04-29T02:45:57;97877.44;;;15.68;70.71
550;BME280;20066;48.764;9.176;2023-04-29T02:48:25;97878.44;;;15.41;71.02
550;BME280;20066;48.764;9.176;2023-04-29T02:50:53;97875.06;;;15.21;72.40
550;BME280;20066;48.764;9.176;2023-04-29T02:53:21;97873.59;;;14.81;73.48
550;BME280;20066;48.764;9.176;2023-04-29T02:55:49;97879.09;;;14.93;73.34
550;BME280;20066;48.764;9.176;2023-04-29T02:58:16;97878.38;;;15.09;72.40
550;BME280;20066;48.764;9.176;2023-04-29T03:00:44;97877.56;;;15.12;72.37
550;BME280;20066;48.764;9.176;2023-04-29T03:03:13;97884.19;;;15.27;72.25
550;BME280;20066;48.764;9.176;2023-04-29T03:05:41;97888.25;;;15.19;72.39
550;BME280;20066;48.764;9.176;2023-04-29T03:08:09;97891.16;;;15.28;71.20
550;BME280;20066;48.764;9.176;2023-04-29T03:10:37;97885.09;;;14.85;72.96
550;BME280;20066;48.764;9.176;2023-04-29T03:13:07;97888.13;;;15.07;72.02
550;BME280;20066;48.764;9.176;2023-04-29T03:15:34;97889.22;;;15.09;70.99
550;BME280;20066;48.764;9.176;2023-04-29T03:18:02;97887.94;;;14.97;73.12
550;BME280;20066;48.764;9.176;2023-04-29T03:20:31;97892.84;;;15.22;71.78
550;BME280;20066;48.764;9.176;2023-04-29T03:22:59;97886.66;;;15.02;72.66
550;BME280;20066;48.764;9.176;2023-04-29T03:25:28;97887.66;;;15.12;72.14
550;BME280;20066;48.764;9.176;2023-04-29T03:27:55;97888.16;;;15.23;70.74
550;BME280;20066;48.764;9.176;2023-04-29T03:30:23;97884.44;;;15.17;70.59
550;BME280;20066;48.764;9.176;2023-04-29T03:32:51;97876.84;;;15.08;71.44
550;BME280;20066;48.764;9.176;2023-04-29T03:35:19;97878.19;;;15.20;70.73
550;BME280;20066;48.764;9.176;2023-04-29T03:37:48;97878.19;;;15.20;70.54
550;BME280;20066;48.764;9.176;2023-04-29T03:40:16;97878.75;;;15.11;71.21
550;BME280;20066;48.764;9.176;2023-04-29T03:42:44;97872.56;;;15.11;71.09
550;BME280;20066;48.764;9.176;2023-04-29T03:45:12;97873.47;;;15.04;71.34
550;BME280;20066;48.764;9.176;2023-04-29T03:47:40;97871.41;;;15.12;71.03
550;BME280;20066;48.764;9.176;2023-04-29T03:50:08;97861.09;;;15.03;71.01
550;BME280;20066;48.764;9.176;2023-04-29T03:52:36;97869.50;;;15.09;70.10
550;BME280;20066;48.764;9.176;2023-04-29T03:55:06;97873.38;;;15.08;70.31
550;BME280;20066;48.764;9.176;2023-04-29T03:57:34;97874.88;;;15.12;69.61
550;BME280;20066;48.764;9.176;2023-04-29T04:00:02;97871.84;;;14.90;71.27
550;BME280;20066;48.764;9.176;2023-04-29T04:02:29;97884.63;;;14.90;70.31
550;BME280;20066;48.764;9.176;2023-04-29T04:04:57;97874.56;;;14.71;71.41
550;BME280;20066;48.764;9.176;2023-04-29T04:07:25;97876.44;;;14.74;70.10
550;BME280;20066;48.764;9.176;2023-04-29T04:09:53;97876.50;;;14.90;70.27
550;BME280;20066;48.764;9.176;2023-04-29T04:12:22;97886.84;;;14.75;71.00
550;BME280;20066;48.764;9.176;2023-04-29T04:14:50;97888.75;;;14.58;71.17
550;BME280;20066;48.764;9.176;2023-04-29T04:17:18;97884.69;;;14.86;70.06
550;BME280;20066;48.764;9.176;2023-04-29T04:19:46;97898.88;;;14.74;70.51
550;BME280;20066;48.764;9.176;2023-04-29T04:22:14;97901.28;;;14.88;69.33
550;BME280;20066;48.764;9.176;2023-04-29T04:24:42;97905.78;;;14.95;68.52
550;BME280;20066;48.764;9.176;2023-04-29T04:27:10;97913.00;;;14.62;70.09
550;BME280;20066;48.764;9.176;2023-04-29T04:29:40;97920.44;;;14.58;69.32
550;BME280;20066;48.764;9.176;2023-04-29T04:32:07;97923.81;;;14.22;71.87
550;BME280;20066;48.764;9.176;2023-04-29T04:34:36;97923.59;;;14.13;71.30
550;BME280;20066;48.764;9.176;2023-04-29T04:37:04;97931.34;;;13.88;72.38
550;BME280;20066;48.764;9.176;2023-04-29T04:39:33;97926.03;;;13.00;77.73
550;BME280;20066;48.764;9.176;2023-04-29T04:42:01;97934.31;;;13.70;75.45
550;BME280;20066;48.764;9.176;2023-04-29T04:44:29;97933.13;;;13.71;75.25
550;BME280;20066;48.764;9.176;2023-04-29T04:46:59;97937.47;;;14.15;73.40
550;BME280;20066;48.764;9.176;2023-04-29T04:49:27;97932.25;;;13.28;75.49
550;BME280;20066;48.764;9.176;2023-04-29T04:51:55;97938.97;;;13.93;73.81
550;BME280;20066;48.764;9.176;2023-04-29T04:54:23;97941.28;;;14.18;72.29
550;BME280;20066;48.764;9.176;2023-04-29T04:56:50;97939.72;;;14.20;71.97
550;BME280;20066;48.764;9.176;2023-04-29T04:59:18;97950.00;;;14.29;72.16
550;BME280;20066;48.764;9.176;2023-04-29T05:01:46;97950.31;;;14.31;71.96
550;BME280;20066;48.764;9.176;2023-04-29T05:04:15;97957.72;;;14.50;71.56
550;BME280;20066;48.764;9.176;2023-04-29T05:06:43;97955.38;;;14.52;71.06
550;BME280;20066;48.764;9.176;2023-04-29T05:09:12;97966.50;;;14.35;70.41
550;BME280;20066;48.764;9.176;2023-04-29T05:11:40;97968.44;;;14.34;71.51
550;BME280;20066;48.764;9.176;2023-04-29T05:14:07;97975.50;;;14.51;71.48
550;BME280;20066;48.764;9.176;2023-04-29T05:16:35;97974.38;;;13.52;74.02
550;BME280;20066;48.764;9.176;2023-04-29T05:19:03;97980.38;;;13.90;75.72
550;BME280;20066;48.764;9.176;2023-04-29T05:21:32;97981.28;;;13.80;76.28
550;BME280;20066;48.764;9.176;2023-04-29T05:24:01;97974.22;;;13.36;77.94
550;BME280;20066;48.764;9.176;2023-04-29T05:26:28;97987.81;;;13.82;78.30
550;BME280;20066;48.764;9.176;2023-04-29T05:28:56;97992.59;;;14.68;74.40
550;BME280;20066;48.764;9.176;2023-04-29T05:31:24;98001.53;;;14.85;74.00
550;BME280;20066;48.764;9.176;2023-04-29T05:33:54;98004.16;;;15.12;72.02
550;BME280;20066;48.764;9.176;2023-04-29T05:36:21;98007.72;;;15.05;73.04
550;BME280;20066;48.764;9.176;2023-04-29T05:38:50;98004.19;;;14.22;75.52
550;BME280;20066;48.764;9.176;2023-04-29T05:41:19;98006.41;;;14.74;74.57
550;BME280;20066;48.764;9.176;2023-04-29T05:43:47;98010.31;;;15.32;73.58
550;BME280;20066;48.764;9.176;2023-04-29T05:46:15;98009.22;;;15.81;70.38
550;BME280;20066;48.764;9.176;2023-04-29T05:48:43;98010.56;;;15.73;69.59
550;BME280;20066;48.764;9.176;2023-04-29T05:51:11;98018.03;;;15.86;70.57
550;BME280;20066;48.764;9.176;2023-04-29T05:53:39;98015.09;;;15.96;69.12
550;BME280;20066;48.764;9.176;2023-04-29T05:56:08;98028.00;;;16.25;69.95
550;BME280;20066;48.764;9.176;2023-04-29T05:58:36;98032.72;;;15.88;69.65
550;BME280;20066;48.764;9.176;2023-04-29T06:01:04;98034.41;;;16.47;68.45
550;BME280;20066;48.764;9.176;2023-04-29T06:03:32;98032.06;;;16.33;68.68
550;BME280;20066;48.764;9.176;2023-04-29T06:06:00;98044.47;;;16.79;67.15
550;BME280;20066;48.764;9.176;2023-04-29T06:08:29;98044.00;;;17.25;65.09
550;BME280;20066;48.764;9.176;2023-04-29T06:10:57;98050.00;;;17.04;65.08
550;BME280;20066;48.764;9.176;2023-04-29T06:13:27;98048.63;;;16.38;68.49
550;BME280;20066;48.764;9.176;2023-04-29T06:15:55;98043.31;;;15.99;69.05
550;BME280;20066;48.764;9.176;2023-04-29T06:18:23;98049.53;;;16.48;67.44
550;BME280;20066;48.764;9.176;2023-04-29T06:20:51;98056.25;;;16.88;65.79
550;BME280;20066;48.764;9.176;2023-04-29T06:23:18;98060.47;;;17.06;64.60
550;BME280;20066;48.764;9.176;2023-04-29T06:25:46;98057.81;;;17.02;64.80
550;BME280;20066;48.764;9.176;2023-04-29T06:28:18;98063.72;;;15.87;67.54
550;BME280;20066;48.764;9.176;2023-04-29T06:30:47;98062.38;;;16.15;68.43
550;BME280;20066;48.764;9.176;2023-04-29T06:33:15;98077.88;;;16.47;67.53
550;BME280;20066;48.764;9.176;2023-04-29T06:35:43;98077.59;;;16.74;64.74
550;BME280;20066;48.764;9.176;2023-04-29T06:38:11;98082.22;;;16.44;66.58
550;BME280;20066;48.764;9.176;2023-04-29T06:40:39;98081.44;;;15.75;69.55
550;BME280;20066;48.764;9.176;2023-04-29T06:43:07;98084.41;;;15.61;69.97
550;BME280;20066;48.764;9.176;2023-04-29T06:45:36;98085.81;;;15.69;69.75
550;BME280;20066;48.764;9.176;2023-04-29T06:48:06;98084.34;;;16.01;67.46
550;BME280;20066;48.764;9.176;2023-04-29T06:50:34;98096.16;;;16.10;66.52
550;BME280;20066;48.764;9.176;2023-04-29T06:53:02;98094.31;;;16.07;67.24
550;BME280;20066;48.764;9.176;2023-04-29T06:55:29;98093.19;;;16.05;67.60
550;BME280;20066;48.764;9.176;2023-04-29T06:57:57;98089.28;;;16.06;66.09
550;BME280;20066;48.764;9.176;2023-04-29T07:00:25;98109.84;;;16.88;63.15
550;BME280;20066;48.764;9.176;2023-04-29T07:02:53;98115.09;;;17.11;63.73
550;BME280;20066;48.764;9.176;2023-04-29T07:05:22;98113.47;;;17.55;62.46
550;BME280;20066;48.764;9.176;2023-04-29T07:07:51;98107.03;;;17.08;63.26
550;BME280;20066;48.764;9.176;2023-04-29T07:10:18;98105.88;;;16.60;64.82
550;BME280;20066;48.764;9.176;2023-04-29T07:12:46;98113.06;;;16.83;63.66
550;BME280;20066;48.764;9.176;2023-04-29T07:15:14;98122.63;;;17.04;62.34
550;BME280;20066;48.764;9.176;2023-04-29T07:17:44;98122.50;;;16.78;62.32
550;BME280;20066;48.764;9.176;2023-04-29T07:20:12;98117.38;;;16.96;62.56
550;BME280;20066;48.764;9.176;2023-04-29T07:22:42;98124.16;;;17.21;59.68
550;BME280;20066;48.764;9.176;2023-04-29T07:25:09;98126.38;;;16.77;60.61
550;BME280;20066;48.764;9.176;2023-04-29T07:27:37;98131.56;;;16.88;62.41
550;BME280;20066;48.764;9.176;2023-04-29T07:30:06;98126.66;;;16.50;62.82
550;BME280;20066;48.764;9.176;2023-04-29T07:32:34;98122.81;;;16.32;61.48
550;BME280;20066;48.764;9.176;2023-04-29T07:35:03;98131.56;;;19.36;56.79
550;BME280;20066;48.764;9.176;2023-04-29T07:37:30;98127.31;;;21.17;50.57
550;BME280;20066;48.764;9.176;2023-04-29T07:39:59;98141.59;;;21.66;48.55
550;BME280;20066;48.764;9.176;2023-04-29T07:42:27;98132.78;;;21.44;47.14
550;BME280;20066;48.764;9.176;2023-04-29T07:44:55;98129.25;;;19.69;51.01
550;BME280;20066;48.764;9.176;2023-04-29T07:47:23;98125.59;;;19.50;52.28
550;BME280;20066;48.764;9.176;2023-04-29T07:49:50;98136.59;;;19.81;51.24
550;BME280;20066;48.764;9.176;2023-04-29T07:52:19;98134.19;;;19.39;52.28
550;BME280;20066;48.764;9.176;2023-04-29T07:54:47;98133.28;;;18.61;54.95
550;BME280;20066;48.764;9.176;2023-04-29T07:57:16;98143.31;;;18.26;55.51
550;BME280;20066;48.764;9.176;2023-04-29T07:59:44;98143.41;;;17.26;57.36
550;BME280;20066;48.764;9.176;2023-04-29T08:02:12;98143.97;;;17.63;57.27
550;BME280;20066;48.764;9.176;2023-04-29T08:04:42;98143.03;;;17.41;58.32
550;BME280;20066;48.764;9.176;2023-04-29T08:07:10;98145.91;;;17.50;57.42
550;BME280;20066;48.764;9.176;2023-04-29T08:09:39;98142.56;;;17.29;57.89
550;BME280;20066;48.764;9.176;2023-04-29T08:12:07;98147.19;;;17.45;58.05
550;BME280;20066;48.764;9.176;2023-04-29T08:14:36;98151.94;;;17.12;58.72
550;BME280;20066;48.764;9.176;2023-04-29T08:17:04;98152.47;;;17.65;57.41
550;BME280;20066;48.764;9.176;2023-04-29T08:19:32;98149.81;;;17.20;58.81
550;BME280;20066;48.764;9.176;2023-04-29T08:22:00;98158.03;;;17.16;59.33
550;BME280;20066;48.764;9.176;2023-04-29T08:24:29;98151.59;;;16.94;58.65
550;BME280;20066;48.764;9.176;2023-04-29T08:26:59;98151.19;;;17.41;58.07
550;BME280;20066;48.764;9.176;2023-04-29T08:29:27;98158.59;;;17.69;58.49
550;BME280;20066;48.764;9.176;2023-04-29T08:31:59;98166.66;;;16.66;60.76
550;BME280;20066;48.764;9.176;2023-04-29T08:34:27;98156.25;;;16.93;59.79
550;BME280;20066;48.764;9.176;2023-04-29T08:36:56;98164.22;;;17.33;56.99
550;BME280;20066;48.764;9.176;2023-04-29T08:39:24;98162.22;;;17.50;58.02
550;BME280;20066;48.764;9.176;2023-04-29T08:41:52;98157.53;;;16.40;61.52
550;BME280;20066;48.764;9.176;2023-04-29T08:44:22;98155.94;;;16.75;61.31
550;BME280;20066;48.764;9.176;2023-04-29T08:46:50;98164.78;;;16.79;62.96
550;BME280;20066;48.764;9.176;2023-04-29T08:49:20;98156.19;;;16.81;61.15
550;BME280;20066;48.764;9.176;2023-04-29T08:51:48;98160.97;;;15.89;64.24
550;BME280;20066;48.764;9.176;2023-04-29T08:54:17;98168.00;;;15.66;64.75
550;BME280;20066;48.764;9.176;2023-04-29T08:56:45;98170.50;;;15.77;65.65
550;BME280;20066;48.764;9.176;2023-04-29T08:59:14;98172.66;;;15.66;65.08
550;BME280;20066;48.764;9.176;2023-04-29T09:01:43;98178.78;;;15.90;65.88
550;BME280;20066;48.764;9.176;2023-04-29T09:04:31;98181.22;;;15.84;65.09
550;BME280;20066;48.764;9.176;2023-04-29T09:07:04;98176.84;;;15.90;64.83
550;BME280;20066;48.764;9.176;2023-04-29T09:09:33;98179.13;;;16.11;64.48
550;BME280;20066;48.764;9.176;2023-04-29T09:12:01;98176.25;;;16.18;63.52
550;BME280;20066;48.764;9.176;2023-04-29T09:14:29;98180.69;;;16.29;63.16
550;BME280;20066;48.764;9.176;2023-04-29T09:16:59;98184.25;;;15.86;65.38
550;BME280;20066;48.764;9.176;2023-04-29T09:19:32;98183.56;;;15.62;65.78
550;BME280;20066;48.764;9.176;2023-04-29T09:22:01;98184.34;;;15.43;66.42
550;BME280;20066;48.764;9.176;2023-04-29T09:24:30;98186.22;;;16.05;64.40
550;BME280;20066;48.764;9.176;2023-04-29T09:26:58;98187.13;;;15.79;63.38
550;BME280;20066;48.764;9.176;2023-04-29T09:29:27;98180.91;;;16.54;62.59
550;BME280;20066;48.764;9.176;2023-04-29T09:31:55;98183.97;;;16.88;60.55
550;BME280;20066;48.764;9.176;2023-04-29T09:34:33;98187.34;;;17.09;59.31
550;BME280;20066;48.764;9.176;2023-04-29T09:37:22;98191.69;;;17.80;59.14
550;BME280;20066;48.764;9.176;2023-04-29T09:39:50;98182.06;;;17.34;60.18
550;BME280;20066;48.764;9.176;2023-04-29T09:42:18;98203.69;;;17.83;57.08
550;BME280;20066;48.764;9.176;2023-04-29T09:44:46;98197.16;;;18.47;55.77
550;BME280;20066;48.764;9.176;2023-04-29T09:47:15;98196.50;;;19.62;52.58
550;BME280;20066;48.764;9.176;2023-04-29T09:49:44;98199.88;;;18.22;54.42
550;BME280;20066;48.764;9.176;2023-04-29T09:52:14;98204.34;;;17.58;56.52
550;BME280;20066;48.764;9.176;2023-04-29T09:54:43;98206.69;;;18.01;56.44
550;BME280;20066;48.764;9.176;2023-04-29T09:57:12;98209.09;;;17.99;54.48
550;BME280;20066;48.764;9.176;2023-04-29T09:59:41;98195.66;;;17.63;56.20
550;BME280;20066;48.764;9.176;2023-04-29T10:02:12;98203.66;;;16.76;58.79
550;BME280;20066;48.764;9.176;2023-04-29T10:04:45;98205.88;;;18.67;53.20
550;BME280;20066;48.764;9.176;2023-04-29T10:07:15;98199.53;;;18.96;52.05
550;BME280;20066;48.764;9.176;2023-04-29T10:09:44;98202.25;;;19.77;49.79
550;BME280;20066;48.764;9.176;2023-04-29T10:12:15;98199.38;;;22.56;42.54
550;BME280;20066;48.764;9.176;2023-04-29T10:14:47;98192.94;;;22.59;43.83
550;BME280;20066;48.764;9.176;2023-04-29T10:17:23;98192.13;;;20.39;44.91
550;BME280;20066;48.764;9.176;2023-04-29T10:19:57;98194.00;;;20.92;45.28
550;BME280;20066;48.764;9.176;2023-04-29T10:22:35;98186.06;;;20.85;46.47
550;BME280;20066;48.764;9.176;2023-04-29T10:25:05;98186.34;;;23.46;39.39
550;BME280;20066;48.764;9.176;2023-04-29T10:27:35;98184.81;;;22.97;40.07
550;BME280;20066;48.764;9.176;2023-04-29T10:30:06;98181.44;;;19.71;46.88
550;BME280;20066;48.764;9.176;2023-04-29T10:32:39;98175.78;;;18.71;48.98
550;BME280;20066;48.764;9.176;2023-04-29T10:35:19;98174.38;;;18.28;50.41
550;BME280;20066;48.764;9.176;2023-04-29T10:37:52;98180.84;;;19.41;48.82
550;BME280;20066;48.764;9.176;2023-04-29T10:40:26;98181.44;;;18.00;51.71
550;BME280;20066;48.764;9.176;2023-04-29T10:42:56;98181.13;;;18.62;52.76
550;BME280;20066;48.764;9.176;2023-04-29T10:45:25;98172.66;;;19.19;49.35
550;BME280;20066;48.764;9.176;2023-04-29T10:48:14;98178.72;;;18.76;50.76
550;BME280;20066;48.764;9.176;2023-04-29T10:51:02;98173.09;;;19.74;48.48
550;BME280;20066;48.764;9.176;2023-04-29T10:53:29;98174.59;;;18.59;50.87
550;BME280;20066;48.764;9.176;2023-04-29T10:56:08;98183.84;;;17.69;53.14
550;BME280;20066;48.764;9.176;2023-04-29T10:58:41;98180.81;;;18.22;52.78
550;BME280;20066;48.764;9.176;2023-04-29T11:01:10;98172.03;;;19.03;50.21
550;BME280;20066;48.764;9.176;2023-04-29T11:03:47;98169.56;;;19.86;48.79
550;BME280;20066;48.764;9.176;2023-04-29T11:06:17;98165.91;;;19.89;48.44
550;BME280;20066;48.764;9.176;2023-04-29T11:08:45;98167.31;;;19.72;48.82
550;BME280;20066;48.764;9.176;2023-04-29T11:11:13;98167.44;;;19.90;47.21
550;BME280;20066;48.764;9.176;2023-04-29T11:13:45;98164.22;;;21.12;45.78
550;BME280;20066;48.764;9.176;2023-04-29T11:16:14;98171.53;;;20.17;46.71
550;BME280;20066;48.764;9.176;2023-04-29T11:19:04;98163.91;;;18.65;49.44
550;BME280;20066;48.764;9.176;2023-04-29T11:21:34;98169.03;;;18.37;50.08
550;BME280;20066;48.764;9.176;2023-04-29T11:24:03;98169.06;;;17.96;51.99
550;BME280;20066;48.764;9.176;2023-04-29T11:26:33;98165.31;;;19.51;48.27
550;BME280;20066;48.764;9.176;2023-04-29T11:29:01;98163.25;;;19.55;47.96
550;BME280;20066;48.764;9.176;2023-04-29T11:31:29;98163.25;;;18.61;49.12
550;BME280;20066;48.764;9.176;2023-04-29T11:33:58;98161.69;;;19.67;47.37
550;BME280;20066;48.764;9.176;2023-04-29T11:36:26;98159.66;;;18.76;47.62
550;BME280;20066;48.764;9.176;2023-04-29T11:38:55;98162.97;;;17.50;49.82
550;BME280;20066;48.764;9.176;2023-04-29T11:41:23;98169.34;;;18.90;46.68
550;BME280;20066;48.764;9.176;2023-04-29T11:43:54;98166.88;;;19.17;45.63
550;BME280;20066;48.764;9.176;2023-04-29T11:46:22;98160.50;;;18.73;48.16
550;BME280;20066;48.764;9.176;2023-04-29T11:48:51;98155.91;;;18.96;47.21
550;BME280;20066;48.764;9.176;2023-04-29T11:51:23;98152.34;;;19.77;45.46
550;BME280;20066;48.764;9.176;2023-04-29T11:53:51;98163.84;;;20.64;44.61
550;BME280;20066;48.764;9.176;2023-04-29T11:56:22;98155.63;;;20.24;44.50
550;BME280;20066;48.764;9.176;2023-04-29T11:58:53;98169.63;;;20.35;45.76
550;BME280;20066;48.764;9.176;2023-04-29T12:01:22;98159.94;;;19.60;47.48
550;BME280;20066;48.764;9.176;2023-04-29T12:03:49;98160.25;;;20.86;44.83
550;BME280;20066;48.764;9.176;2023-04-29T12:06:18;98168.84;;;22.96;41.13
550;BME280;20066;48.764;9.176;2023-04-29T12:08:46;98174.09;;;21.91;42.57
550;BME280;20066;48.764;9.176;2023-04-29T12:11:15;98170.06;;;20.65;44.60
550;BME280;20066;48.764;9.176;2023-04-29T12:13:45;98168.81;;;19.95;46.84
550;BME280;20066;48.764;9.176;2023-04-29T12:16:13;98170.53;;;19.80;46.63
550;BME280;20066;48.764;9.176;2023-04-29T12:18:41;98173.94;;;19.49;47.88
550;BME280;20066;48.764;9.176;2023-04-29T12:21:08;98166.34;;;19.66;47.77
550;BME280;20066;48.764;9.176;2023-04-29T12:23:36;98174.88;;;21.10;44.50
550;BME280;20066;48.764;9.176;2023-04-29T12:26:05;98182.47;;;19.95;47.92
550;BME280;20066;48.764;9.176;2023-04-29T12:28:33;98188.56;;;20.52;45.81
550;BME280;20066;48.764;9.176;2023-04-29T12:31:02;98181.78;;;18.91;48.49
550;BME280;20066;48.764;9.176;2023-04-29T12:33:30;98186.88;;;19.36;48.99
550;BME280;20066;48.764;9.176;2023-04-29T12:35:58;98188.00;;;20.35;46.31
550;BME280;20066;48.764;9.176;2023-04-29T12:38:27;98192.50;;;19.54;48.36
550;BME280;20066;48.764;9.176;2023-04-29T12:40:58;98186.25;;;18.60;50.67
550;BME280;20066;48.764;9.176;2023-04-29T12:43:27;98187.69;;;18.39;51.73
550;BME280;20066;48.764;9.176;2023-04-29T12:46:00;98201.72;;;18.75;50.50
550;BME280;20066;48.764;9.176;2023-04-29T12:48:30;98208.47;;;18.20;51.24
550;BME280;20066;48.764;9.176;2023-04-29T12:51:00;98194.50;;;18.81;50.47
550;BME280;20066;48.764;9.176;2023-04-29T12:53:29;98192.75;;;20.13;46.35
550;BME280;20066;48.764;9.176;2023-04-29T12:55:57;98201.66;;;20.04;47.10
550;BME280;20066;48.764;9.176;2023-04-29T12:58:27;98191.34;;;18.96;49.25
550;BME280;20066;48.764;9.176;2023-04-29T13:00:55;98192.13;;;20.09;46.97
550;BME280;20066;48.764;9.176;2023-04-29T13:03:23;98189.81;;;19.42;46.49
550;BME280;20066;48.764;9.176;2023-04-29T13:05:53;98190.69;;;19.04;48.28
550;BME280;20066;48.764;9.176;2023-04-29T13:08:21;98206.03;;;17.97;50.29
550;BME280;20066;48.764;9.176;2023-04-29T13:10:49;98202.50;;;17.96;50.74
550;BME280;20066;48.764;9.176;2023-04-29T13:13:17;98206.50;;;18.08;50.58
550;BME280;20066;48.764;9.176;2023-04-29T13:15:45;98197.56;;;18.20;50.49
550;BME280;20066;48.764;9.176;2023-04-29T13:18:13;98194.69;;;19.81;47.59
550;BME280;20066;48.764;9.176;2023-04-29T13:20:41;98198.25;;;19.69;47.33
550;BME280;20066;48.764;9.176;2023-04-29T13:23:10;98209.41;;;20.36;46.49
550;BME280;20066;48.764;9.176;2023-04-29T13:25:38;98212.53;;;20.48;45.50
550;BME280;20066;48.764;9.176;2023-04-29T13:28:06;98201.88;;;20.90;45.08
550;BME280;20066;48.764;9.176;2023-04-29T13:30:34;98201.59;;;20.48;46.09
550;BME280;20066;48.764;9.176;2023-04-29T13:33:02;98207.72;;;21.10;45.75